createdAt,value
2022-11-24T00:02:26.138Z,100677.91
2022-11-24T00:07:28.099Z,100674.66
2022-11-24T00:12:30.176Z,100666.22
2022-11-24T00:17:32.615Z,100666.09
2022-11-24T00:22:34.424Z,100675.59
2022-11-24T00:27:36.276Z,100668.41
2022-11-24T00:32:38.039Z,100664.78
2022-11-24T00:37:40.067Z,100666.53
2022-11-24T00:42:41.875Z,100661.72
2022-11-24T00:47:43.962Z,100670.72
2022-11-24T00:52:47.709Z,100667.16
2022-11-24T00:57:49.469Z,100663.03
2022-11-24T01:02:52.655Z,100668.84
2022-11-24T01:07:54.775Z,100681.94
2022-11-24T01:12:56.790Z,100685.91
2022-11-24T01:17:59.025Z,100684.44
2022-11-24T01:23:00.879Z,100684.69
2022-11-24T01:28:03.015Z,100678.84
2022-11-24T01:33:05.329Z,100678.16
2022-11-24T01:38:07.183Z,100674.34
2022-11-24T01:43:21.392Z,100680.00
2022-11-24T01:48:27.811Z,100685.94
2022-11-24T01:53:30.858Z,100680.00
2022-11-24T01:58:34.742Z,100688.41
2022-11-24T02:03:39.891Z,100680.47
2022-11-24T02:09:09.451Z,100685.53
2022-11-24T02:14:14.042Z,100680.38
2022-11-24T02:19:29.144Z,100684.91
2022-11-24T02:24:41.434Z,100686.69
2022-11-24T02:29:43.532Z,100687.47
2022-11-24T02:34:45.595Z,100690.38
2022-11-24T02:39:48.700Z,100688.31
2022-11-24T02:44:56.222Z,100681.53
2022-11-24T02:49:58.097Z,100679.81
2022-11-24T02:55:02.478Z,100684.09
2022-11-24T03:00:04.936Z,100688.09
2022-11-24T03:05:07.284Z,100681.59
2022-11-24T03:10:09.459Z,100681.50
2022-11-24T03:15:11.656Z,100666.47
2022-11-24T03:20:14.463Z,100668.41
2022-11-24T03:25:16.382Z,100664.63
2022-11-24T03:30:18.882Z,100673.94
2022-11-24T03:35:21.966Z,100674.59
2022-11-24T03:40:23.798Z,100684.31
2022-11-24T03:50:59.405Z,100679.81
2022-11-24T03:56:02.298Z,100686.09
2022-11-24T04:01:04.521Z,100690.19
2022-11-24T04:06:06.415Z,100701.22
2022-11-24T04:11:08.356Z,100725.06
2022-11-24T04:16:10.066Z,100720.41
2022-11-24T04:21:11.824Z,100719.94
2022-11-24T04:26:13.666Z,100733.91
2022-11-24T04:31:15.508Z,100732.56
2022-11-24T04:36:17.213Z,100739.38
2022-11-24T04:41:19.025Z,100745.47
2022-11-24T04:46:20.648Z,100758.13
2022-11-24T04:51:23.374Z,100762.91
2022-11-24T04:56:24.983Z,100785.25
2022-11-24T05:01:27.576Z,100785.78
2022-11-24T05:06:29.262Z,100796.66
2022-11-24T05:11:30.930Z,100800.44
2022-11-24T05:16:32.635Z,100788.78
2022-11-24T05:21:34.640Z,100806.38
2022-11-24T05:26:36.495Z,100807.31
2022-11-24T05:31:38.280Z,100807.09
2022-11-24T05:36:55.184Z,100820.19
2022-11-24T05:41:56.848Z,100831.78
2022-11-24T05:46:58.619Z,100833.25
2022-11-24T05:52:00.177Z,100816.91
2022-11-24T05:57:01.727Z,100781.00
2022-11-24T06:02:03.776Z,100768.66
2022-11-24T06:07:09.006Z,100730.78
2022-11-24T06:12:11.892Z,100728.94
2022-11-24T06:17:13.594Z,100730.44
2022-11-24T06:22:15.253Z,100733.75
2022-11-24T06:27:16.861Z,100736.09
2022-11-24T06:32:19.701Z,100752.41
2022-11-24T06:37:21.600Z,100764.38
2022-11-24T06:42:23.163Z,100771.84
2022-11-24T06:47:24.681Z,100788.03
2022-11-24T06:52:26.465Z,100800.00
2022-11-24T06:57:31.213Z,100821.84
2022-11-24T07:02:32.845Z,100843.72
2022-11-24T07:07:34.531Z,100880.16
2022-11-24T07:12:36.475Z,100893.78
2022-11-24T07:17:42.409Z,100918.22
2022-11-24T07:22:43.996Z,100934.16
2022-11-24T07:27:45.578Z,100956.50
2022-11-24T07:32:47.194Z,100974.31
2022-11-24T07:37:48.780Z,100985.78
2022-11-24T07:42:50.776Z,101081.50
2022-11-24T07:47:52.403Z,101104.53
2022-11-24T07:52:54.043Z,101133.59
2022-11-24T07:57:59.781Z,101157.38
2022-11-24T08:03:01.356Z,101173.41
2022-11-24T08:08:03.150Z,101182.06
2022-11-24T08:13:04.690Z,101199.31
2022-11-24T08:18:06.412Z,101213.06
2022-11-24T08:23:08.984Z,101221.44
2022-11-24T08:28:10.564Z,101221.94
2022-11-24T08:33:12.933Z,101229.69
2022-11-24T08:38:17.090Z,101229.94
2022-11-24T08:43:18.681Z,101235.66
2022-11-24T08:48:21.577Z,101236.72
2022-11-24T08:53:23.489Z,101232.25
2022-11-24T08:58:25.063Z,101223.97
2022-11-24T09:03:26.584Z,101222.69
2022-11-24T09:08:29.885Z,101213.06
2022-11-24T09:13:31.551Z,101210.78
2022-11-24T09:18:33.206Z,101190.53
2022-11-24T09:23:35.039Z,101192.59
2022-11-24T09:28:36.675Z,101183.97
2022-11-24T09:33:38.691Z,101187.34
2022-11-24T09:38:41.010Z,101187.84
2022-11-24T09:43:45.622Z,101180.97
2022-11-24T09:48:51.206Z,101180.06
2022-11-24T09:54:10.722Z,101186.34
2022-11-24T09:59:21.731Z,101193.34
2022-11-24T10:04:37.305Z,101198.72
2022-11-24T10:10:34.201Z,101203.22
2022-11-24T10:15:48.000Z,101200.50
2022-11-24T10:20:59.316Z,101202.00
2022-11-24T10:26:02.130Z,101200.69
2022-11-24T10:31:30.180Z,101192.38
2022-11-24T10:36:47.942Z,101118.78
2022-11-24T10:42:11.568Z,101108.81
2022-11-24T10:47:22.772Z,101104.50
2022-11-24T10:52:27.225Z,101084.94
2022-11-24T10:57:35.472Z,101093.09
2022-11-24T11:02:39.381Z,101118.03
2022-11-24T11:07:41.742Z,101101.88
2022-11-24T11:12:44.785Z,101092.88
2022-11-24T11:17:47.010Z,101078.97
2022-11-24T11:22:50.731Z,101076.69
2022-11-24T11:28:31.478Z,101057.03
2022-11-24T11:39:01.325Z,101071.97
2022-11-24T11:44:25.959Z,101067.63
2022-11-24T11:49:27.853Z,101075.97
2022-11-24T11:54:44.382Z,101072.25
2022-11-24T12:00:04.439Z,101076.47
2022-11-24T12:05:24.090Z,101081.09
2022-11-24T12:10:31.594Z,101079.09
2022-11-24T12:15:50.244Z,101071.88
2022-11-24T12:21:22.910Z,101055.28
2022-11-24T12:26:53.492Z,101048.22
2022-11-24T12:31:58.112Z,101047.81
2022-11-24T12:37:08.354Z,101038.56
2022-11-24T12:42:19.212Z,101038.44
2022-11-24T12:47:26.727Z,101042.16
2022-11-24T12:52:57.142Z,101042.69
2022-11-24T12:58:34.567Z,101050.72
2022-11-24T13:03:39.264Z,101046.31
2022-11-24T13:08:41.333Z,101042.25
2022-11-24T13:14:01.003Z,101050.50
2022-11-24T13:19:10.195Z,101056.78
2022-11-24T13:24:19.206Z,101067.66
2022-11-24T13:29:28.045Z,101072.38
2022-11-24T13:34:38.849Z,101077.66
2022-11-24T13:39:52.060Z,101076.00
2022-11-24T13:44:55.932Z,101078.94
2022-11-24T13:56:28.431Z,101088.78
2022-11-24T14:01:37.138Z,101085.69
2022-11-24T14:06:57.717Z,101085.47
2022-11-24T14:12:08.303Z,101083.00
2022-11-24T14:17:16.101Z,101078.22
2022-11-24T14:22:22.830Z,101093.97
2022-11-24T14:27:39.236Z,101093.44
2022-11-24T14:32:42.343Z,101095.81
2022-11-24T14:37:44.002Z,101102.28
2022-11-24T14:42:50.324Z,101112.72
2022-11-24T14:47:52.483Z,101118.97
2022-11-24T14:52:58.368Z,101136.28
2022-11-24T14:58:00.387Z,101148.78
2022-11-24T15:03:01.994Z,101157.88
2022-11-24T15:08:04.183Z,101174.00
2022-11-24T15:13:19.811Z,101184.50
2022-11-24T15:18:28.688Z,101198.84
2022-11-24T15:23:32.269Z,101197.22
2022-11-24T15:28:33.893Z,101197.63
2022-11-24T15:33:35.641Z,101198.38
2022-11-24T15:38:37.576Z,101216.75
2022-11-24T15:43:40.982Z,101230.81
2022-11-24T15:55:36.484Z,101237.41
2022-11-24T16:00:38.224Z,101250.06
2022-11-24T16:05:40.715Z,101255.19
2022-11-24T16:10:44.017Z,101267.75
2022-11-24T16:15:46.050Z,101273.59
2022-11-24T16:20:49.754Z,101283.25
2022-11-24T16:25:51.408Z,101284.56
2022-11-24T16:30:53.112Z,101289.31
2022-11-24T16:35:54.761Z,101284.44
2022-11-24T16:40:56.905Z,101291.91
2022-11-24T16:46:19.073Z,101291.84
2022-11-24T16:51:23.255Z,101295.22
2022-11-24T16:56:25.212Z,101284.03
2022-11-24T17:01:27.221Z,101301.72
2022-11-24T17:06:29.209Z,101296.31
2022-11-24T17:11:31.058Z,101300.94
2022-11-24T17:16:32.842Z,101305.78
2022-11-24T17:21:34.492Z,101302.03
2022-11-24T17:26:36.061Z,101310.28
2022-11-24T17:31:39.841Z,101320.63
2022-11-24T17:36:44.711Z,101321.19
2022-11-24T17:41:46.392Z,101317.56
2022-11-24T17:46:48.110Z,101327.31
2022-11-24T17:51:50.678Z,101324.16
2022-11-24T17:56:52.342Z,101330.44
2022-11-24T18:01:54.569Z,101341.50
2022-11-24T18:06:56.226Z,101355.38
2022-11-24T18:11:57.835Z,101369.78
2022-11-24T18:16:59.818Z,101442.22
2022-11-24T18:22:01.840Z,101453.25
2022-11-24T18:27:03.738Z,101444.59
2022-11-24T18:32:06.072Z,101429.34
2022-11-24T18:37:09.374Z,101428.31
2022-11-24T18:42:11.650Z,101422.50
2022-11-24T18:47:13.308Z,101413.59
2022-11-24T18:52:15.087Z,101411.25
2022-11-24T18:57:16.783Z,101400.38
2022-11-24T19:02:18.402Z,101381.34
2022-11-24T19:07:20.582Z,101370.09
2022-11-24T19:12:22.346Z,101360.00
2022-11-24T19:17:24.090Z,101354.56
2022-11-24T19:22:25.713Z,101355.59
2022-11-24T19:27:27.264Z,101343.16
2022-11-24T19:32:31.275Z,101324.00
2022-11-24T19:37:33.087Z,101254.66
2022-11-24T19:42:34.907Z,101260.94
2022-11-24T19:47:36.600Z,101262.59
2022-11-24T19:52:38.346Z,101256.72
2022-11-24T19:57:40.435Z,101263.56
2022-11-24T20:02:42.189Z,101265.59
2022-11-24T20:07:43.886Z,101267.22
2022-11-24T20:12:45.533Z,101264.72
2022-11-24T20:17:47.275Z,101274.25
2022-11-24T20:22:48.877Z,101275.97
2022-11-24T20:27:50.774Z,101271.59
2022-11-24T20:32:52.390Z,101278.63
2022-11-24T20:38:06.581Z,101272.59
2022-11-24T20:43:08.187Z,101254.47
2022-11-24T20:48:09.841Z,101265.19
2022-11-24T20:53:11.463Z,101272.88
2022-11-24T20:58:13.063Z,101273.13
2022-11-24T21:03:14.660Z,101275.47
2022-11-24T21:08:17.816Z,101278.47
2022-11-24T21:13:19.641Z,101291.97
2022-11-24T21:18:22.408Z,101282.22
2022-11-24T21:23:24.071Z,101289.22
2022-11-24T21:28:26.158Z,101283.75
2022-11-24T21:33:27.831Z,101284.72
2022-11-24T21:38:30.216Z,101279.59
2022-11-24T21:43:33.002Z,101269.56
2022-11-24T21:48:36.206Z,101274.56
2022-11-24T21:53:38.566Z,101273.59
2022-11-24T21:58:46.822Z,101260.13
2022-11-24T22:03:52.652Z,101264.59
2022-11-24T22:08:55.175Z,101262.09
2022-11-24T22:13:56.883Z,101256.59
2022-11-24T22:18:59.737Z,101262.13
2022-11-24T22:24:01.981Z,101258.13
2022-11-24T22:29:04.073Z,101262.75
2022-11-24T22:34:05.949Z,101261.06
2022-11-24T22:39:11.922Z,101257.13
2022-11-24T22:44:13.666Z,101255.94
2022-11-24T22:49:15.372Z,101254.78
2022-11-24T22:54:19.065Z,101233.56
2022-11-24T22:59:20.732Z,101210.75
2022-11-24T23:04:22.454Z,101205.47
2022-11-24T23:09:24.105Z,101199.97
2022-11-24T23:14:26.783Z,101191.66
2022-11-24T23:19:28.477Z,101182.78
2022-11-24T23:24:32.593Z,101171.53
2022-11-24T23:29:34.425Z,101172.09
2022-11-24T23:34:36.270Z,101164.34
2022-11-24T23:39:38.211Z,101158.47
2022-11-24T23:44:39.824Z,101155.06
2022-11-24T23:49:41.980Z,101145.19
2022-11-24T23:54:49.553Z,101140.91
2022-11-24T23:59:51.242Z,101138.44
